Welcome to our new website - Welkom op onze vernieuwde website - Bienvenue sur notre nouveau site web - Willkommen auf unserer neuen Website
Check our progress frequently. Prüfen Sie unsere Fortschritte regelmäßig. Consultez notre progression fréquemment. Komt u straks nog eens

KNMI Weersverwachting is alleen beschikbaar in de Nederlandse Taal, Ongeacht welke taal u kiest.
KNMI weather forecast is only available in the Dutch language, No matter what language you choose.







Meteo Oudkarspel - De weer weet site voor Langedijk

Blijf op de hoogte van het actuele weer, Keep up to date with the current weather.



Lokaal brandgevaar
CBI


Regionaal natuur brand risico: Meer informatie


Mijn Webcam 1 Meer informatie My webcam


Mijn Webcam 2 Meer informatie My webcam 2


Onweer radar Meer informatie blitzortung!


Regen radar Meer informatie rain snow radar


Bezoek onze andere website:

Template - Davis WeatherLink Version
Vantage Veu

Template - Meteotemplate

Template - HomeWeatherStation

PDøROK Multimedia

Meteo Broek Op Langedijk

Lief LangedijkLief Langedijk

Dé fietsenmaker van Langedijk en omstrekenAxel Noort dé fietsenmaker

Ijsvereniging Volharding

Meteo Tuitjenhorn

Meteo Delfzijl

Meteo SauwerdMeteo Sauwerd

WeerstationMeteo Sauwerd

Weerstation Noordbergum

Weerstation ParkstadWeerstation Parkstad

Norderney



Het weer levert geen direct gevaar op.    Er zijn geen waarschuwingen afgegeven.

METAR rapporten vliegvelden

   
EHKD - De Kooy (navy), Netherlands
Afstand tot: N 23 km
Gewijzigd: 18-Aug-2019 02:37
Bewolking  
Bewolking  
   Wind: ZZW 16.7 km/h
Wind: ZZW 16.7 km/h
Temperatuur: 18°C
Dauwpunt: 16°C
Vochtigheid: 88%
Barometer: 1005 hPa
Bewolking: Bewolking
Zicht: meer dan 10 km
Bewolking: Licht bewolkt 1100 ft,
Grotendeels bewolkt 1600 ft,
Bewolking 1900 ft
EHKD 180037Z AUTO 21009KT 9999 FEW011 BKN016 OVC019 18/16 Q1005 WHT
EHAM - Amsterdam/Schiph, Netherlands
Afstand tot: Z 44 km
Gewijzigd: 18-Aug-2019 02:25
Licht bewolkt  
Licht bewolkt  
   Wind: Zuiden 14.8 km/h
Wind: Zuiden 14.8 km/h
Temperatuur: 16°C
Dauwpunt: 14°C
Vochtigheid: 88%
Barometer: 1005 hPa
Bewolking: Licht bewolkt
Zicht: meer dan 10 km
Bewolking: Licht bewolkt 1700 ft
EHAM 180025Z 19008KT 9999 FEW017 16/14 Q1005 NOSIG
EHQE - Hoorn-A Sea, Netherlands
Afstand tot: WNW 50 km
Gewijzigd: 18-Aug-2019 02:25
Gedeeltelijk bewolkt  
Gedeeltelijk bewolkt  
   Wind: Zuiden 29.6 km/h
Wind: Zuiden 29.6 km/h
Temperatuur: 18°C
Dauwpunt: 16°C
Vochtigheid: 88%
Barometer: 1004 hPa
Bewolking: Gedeeltelijk bewolkt
Bewolking: Gedeeltelijk bewolkt
EHQE 180025Z AUTO 19016KT //// // NSC 18/16 Q1004 W///H///
EHVL - Vlieland Island, Netherlands
Afstand tot: N 58 km
Gewijzigd: 18-Aug-2019 02:42
Nevel, Bewolking  
Nevel, Bewolking  
   Wind: ZZW 18.5 km/h
Wind: ZZW 18.5 km/h
Temperatuur: 17°C
Dauwpunt: 16°C
Vochtigheid: 94%
Barometer: 1004 hPa
Bewolking: Bewolking
Zicht: 8 km
Bewolking: Licht bewolkt 1100 ft,
Grotendeels bewolkt 1500 ft,
Bewolking 7500 ft
EHVL 180042Z AUTO 20010KT 8000 BR FEW011 BKN015 OVC075 17/16 Q1004 WHT
EHLW - Leeuwarden Rnlaf, Netherlands
Afstand tot: NO 85 km
Gewijzigd: 18-Aug-2019 02:25
Bewolking  
Bewolking  
   Wind: Zuiden 9.3 km/h
Wind: Zuiden 9.3 km/h
Temperatuur: 16°C
Dauwpunt: 15°C
Vochtigheid: 94%
Barometer: 1005 hPa
Bewolking: Bewolking
Zicht: meer dan 10 km
Bewolking: Bewolking 17000 ft
EHLW 180025Z AUTO 19005KT 160V220 9999 OVC170 16/15 Q1005 BLU
EHRD - Rotterdam Airpor, Netherlands
Afstand tot: ZZW 88 km
Gewijzigd: 18-Aug-2019 02:25
Gedeeltelijk bewolkt  
Gedeeltelijk bewolkt  
   Wind: ZZW 13 km/h
Wind: ZZW 13 km/h
Temperatuur: 17°C
Dauwpunt: 14°C
Vochtigheid: 83%
Barometer: 1006 hPa
Bewolking: Gedeeltelijk bewolkt
Zicht: meer dan 10 km
Bewolking: Gedeeltelijk bewolkt
EHRD 180025Z AUTO 21007KT 170V250 9999 NSC 17/14 Q1006 NOSIG
EHKV - K14-Fa-1c Sea, Netherlands
Afstand tot: NW 100 km
Gewijzigd: 18-Aug-2019 02:25
Gedeeltelijk bewolkt  
Gedeeltelijk bewolkt  
   Wind: ZZW 24.1 km/h
Wind: ZZW 24.1 km/h
Temperatuur: 18°C
Dauwpunt: 16°C
Vochtigheid: 88%
Barometer: 1003 hPa
Bewolking: Gedeeltelijk bewolkt
Zicht: meer dan 10 km
Bewolking: Gedeeltelijk bewolkt
EHKV 180025Z AUTO 21013KT 9999 NSC 18/16 Q1003 W///H///
EHMG - L9-Ff-1 Sea, Netherlands
Afstand tot: N 101 km
Gewijzigd: 18-Aug-2019 02:25
Gedeeltelijk bewolkt  
Gedeeltelijk bewolkt  
   Wind: ZW 27.8 km/h
Wind: ZW 27.8 km/h
Temperatuur: 18°C
Dauwpunt: 17°C
Vochtigheid: 94%
Barometer: 1005 hPa
Bewolking: Gedeeltelijk bewolkt
Zicht: meer dan 10 km
Bewolking: Gedeeltelijk bewolkt
EHMG 180025Z AUTO 23015KT 9999 NSC 18/17 Q1005 W///H///
EHDL - Deelen Rnlafb, Netherlands
Afstand tot: ZO 102 km
Gewijzigd: 18-Aug-2019 02:25
Bewolking  
Bewolking  
   Wind: ZW 7.4 km/h
Wind: ZW 7.4 km/h
Temperatuur: 16°C
Dauwpunt: 15°C
Vochtigheid: 94%
Barometer: 1007 hPa
Bewolking: Bewolking
Zicht: meer dan 10 km
Bewolking: Bewolking 10000 ft
EHDL 180025Z AUTO 23004KT 170V280 9999 OVC100 16/15 Q1007 BLU
EHPG - P11-B Sea, Netherlands
Afstand tot: WZW 106 km
Gewijzigd: 18-Aug-2019 02:25
Wat regen mogelijk, Licht bewolkt  
Wat regen mogelijk, Licht bewolkt  
   Wind: ZW 35.2 km/h
Wind: ZW 35.2 km/h
Temperatuur: 18°C
Dauwpunt: 15°C
Vochtigheid: 83%
Barometer: 1004 hPa
Bewolking: Licht bewolkt
Zicht: 9 km
Bewolking: Licht bewolkt 1400 ft
EHPG 180025Z AUTO 23019KT 9000 -RA FEW014 18/15 Q1004 W///H///
EHMA - Awg-1 Sea, Netherlands
Afstand tot: NO 116 km
Gewijzigd: 18-Aug-2019 02:25
Gedeeltelijk bewolkt  
Gedeeltelijk bewolkt  
   Wind: ZZW 31.5 km/h
Wind: ZZW 31.5 km/h
Temperatuur: 17°C
Dauwpunt: 16°C
Vochtigheid: 94%
Barometer: 1005 hPa
Bewolking: Gedeeltelijk bewolkt
Bewolking: Gedeeltelijk bewolkt
EHMA 180025Z AUTO 21017KT 170V260 //// // NSC 17/16 Q1005 RE// W///H///
EHSC - Goeree Le Sea, Netherlands
Afstand tot: ZW 116 km
Gewijzigd: 18-Aug-2019 02:25
  
  
   Wind: WZW 38.9 km/h
Wind: WZW 38.9 km/h
Temperatuur: 18°C
Dauwpunt: 15°C
Vochtigheid: 83%
Barometer: 1005 hPa
Zicht: meer dan 10 km
EHSC 180025Z AUTO 24021KT 9999 ///////// 18/15 Q1005 W20/H14
EHJR - K13-A Sea, Netherlands
Afstand tot: WNW 120 km
Gewijzigd: 18-Aug-2019 02:25
  
  
   Wind: ZW 24.1 km/h
Wind: ZW 24.1 km/h
Temperatuur: 18°C
Dauwpunt: 16°C
Vochtigheid: 88%
Barometer: 1006 hPa
EHJR 180025Z AUTO 22013KT //// // ///////// 18/16 Q1006 RE// W18/H9
EHGG - Groningen/Eelde, Netherlands
Afstand tot: ONO 126 km
Gewijzigd: 18-Aug-2019 02:25
Gedeeltelijk bewolkt  
Gedeeltelijk bewolkt  
   Wind: ZZW 11.1 km/h
Wind: ZZW 11.1 km/h
Temperatuur: 16°C
Dauwpunt: 15°C
Vochtigheid: 94%
Barometer: 1005 hPa
Bewolking: Gedeeltelijk bewolkt
Zicht: meer dan 10 km
Bewolking: Gedeeltelijk bewolkt
EHGG 180025Z AUTO 21006KT 9999 NSC 16/15 Q1005
EHGR - Gilze-Rijen Rnla, Netherlands
Afstand tot: Z 128 km
Gewijzigd: 18-Aug-2019 02:25
Bewolking  
Bewolking  
   Wind: ZZW 9.3 km/h
Wind: ZZW 9.3 km/h
Temperatuur: 16°C
Dauwpunt: 15°C
Vochtigheid: 94%
Barometer: 1007 hPa
Bewolking: Bewolking
Zicht: meer dan 10 km
Bewolking: Bewolking 10000 ft
EHGR 180025Z AUTO 20005KT 170V240 9999 OVC100 16/15 Q1007 BLU
EHSA - Euro Platform, Netherlands
Afstand tot: ZW 130 km
Gewijzigd: 18-Aug-2019 02:25
  
  
   Wind: ZW 40.7 km/h
Wind: ZW 40.7 km/h
Temperatuur: 18°C
Dauwpunt: 14°C
Vochtigheid: 78%
Barometer: 1005 hPa
Zicht: meer dan 10 km
EHSA 180025Z AUTO 22022KT 9999 ///////// 18/14 Q1005 W17/H16
EHVK - Volkel Rnlafb, Netherlands
Afstand tot: ZZO 135 km
Gewijzigd: 18-Aug-2019 02:25
Grotendeels bewolkt  
Grotendeels bewolkt  
   Wind: ZZW 9.3 km/h
Wind: ZZW 9.3 km/h
Temperatuur: 16°C
Dauwpunt: 16°C
Vochtigheid: 100%
Barometer: 1007 hPa
Bewolking: Grotendeels bewolkt
Zicht: meer dan 10 km
Bewolking: Licht bewolkt 7200 ft,
Gedeeltelijk bewolkt 8100 ft,
Grotendeels bewolkt 8700 ft
EHVK 180025Z AUTO 21005KT 160V230 9999 FEW072 SCT081 BKN087 16/16 Q1007 BLU
EHWO - Woensdrecht Rnla, Netherlands
Afstand tot: ZZW 144 km
Gewijzigd: 18-Aug-2019 02:25
Bewolking  
Bewolking  
   Wind: ZW 9.3 km/h
Wind: ZW 9.3 km/h
Temperatuur: 16°C
Dauwpunt: 14°C
Vochtigheid: 88%
Barometer: 1006 hPa
Bewolking: Bewolking
Zicht: meer dan 10 km
Bewolking: Bewolking 10000 ft
EHWO 180025Z AUTO 22005KT 190V250 9999 OVC100 16/14 Q1006 BLU
EHEH - Eindhoven Rnlafb, Netherlands
Afstand tot: ZZO 146 km
Gewijzigd: 18-Aug-2019 02:31
Wat regen mogelijk, Motregen, Bewolking  
Wat regen mogelijk, Motregen, Bewolking  
   Wind: ZW 11.1 km/h
Wind: ZW 11.1 km/h
Temperatuur: 16°C
Dauwpunt: 15°C
Vochtigheid: 94%
Barometer: 1007 hPa
Bewolking: Bewolking
Zicht: meer dan 10 km
Bewolking: Gedeeltelijk bewolkt 1500 ft,
Bewolking 10000 ft
EHEH 180031Z AUTO 22006KT 9999 -RADZ SCT015CB OVC100 16/15 Q1007 WHT
EDLV - Niederrhein, Germany
Afstand tot: ZO 154 km
Gewijzigd: 17-Aug-2019 23:50
Verouderd
Grotendeels bewolkt  
Grotendeels bewolkt  
   Wind: WZW 13 km/h
Wind: WZW 13 km/h
Temperatuur: 17°C
Dauwpunt: 16°C
Vochtigheid: 94%
Barometer: 1007 hPa
Bewolking: Grotendeels bewolkt
Zicht: meer dan 10 km
Bewolking: Grotendeels bewolkt 3400 ft
EDLV 172150Z 25007KT 9999 BKN034 17/16 Q1007
 

Script ontwikkeld door  Saratoga-weather.org Aangepast voor de template door  Weerstation Leuven

U vindt ons ook hier:

Vereniging voor Weerkunde en Klimatologie

Het Weer Aktueel

WOW Nederland KNMI

UK Metoffice

European Weather Network

WeatherCloud

Weather Underground

Benelux Weer Netwerk

AWEKAS

WeatherlinkIP

Citizen Weather Observer Program (CWOP)

HAMweather, WeatherForYou, PWS Weather

        

Apparatuur in gebruik:

Weerstation
Davis - Vantage Veu

Weerprogramma
Meteobridge

Weercomputer
Carambola2 - MeteroBridge Pro (black)

Webleverancier
1Eurohosting

Hardwareleverancier 1
Uurwerk- & Meteospecialist Vlasma

Hardwareleverancier 2
Weerhuisje

Davis - Vantage Veu

Meteobridge

Carambola2 - MeteroBridge Pro (black)

1Eurohosting

Uurwerk- & Meteospecialist Vlasma

Weerhuisje


Alles over het weer rondom het weerstation van Meteo Oudkarspel, vind je hier. Dus alles onder 1 dak.

Everything about the weather around the Meteo Oudkarspel weather station can be found here. So everything under one roof..

Dus kom regelmatig terug, So come back regularly.


# #---------------------- version history # 3.20 2015-10-12 release 2.8b version